West Pittston, Pennsylvania
Current Conditions -  °F | °C
As of 3:54 PM on Friday 24 Oct 2014 (Local Time) from KAVP Reporting Station
Clear Clear  
Wind Chill: 65°   Ceiling: Unl
Heat Index: 65°   Visibility: 10mi
Dew Point: 40°   Wind: 15mph
Humidity: 40%   Direction: 300°WNW
Pressure: 29.84"   Gusts: 22mph
Location:  41.3688°N, 75.837°W
Report Text: KAVP 241954Z AUTO 30013G19KT 10SM CLR 18/04 A2984 RMK AO2 SLP102 T01830044
Loading
Personal Weather Stations






























Interactive Weather Map
Tropical Storm Tracking
New forecast layout! Learn more

10-Day Weather Forecast

Advertisements
Track Severe Weather on mobile